Time;durP1;ratioP1;P1;durP2;ratioP2;P2;SDS_P1;SDS_P2;PMS_P1;PMS_P2;Temp;Humidity;BMP_temperature;BMP_pressure;BME280_temperature;BME280_humidity;BME280_pressure;Samples;Min_cycle;Max_cycle;Signal;HPM_P1;HPM_P2
2022/01/20 00:00:33;;;;;;;22.45;2.50;;;;;;;5.81;100.00;102413.50;5080073;28;20052;-39
2022/01/20 00:03:11;;;;;;;19.45;2.65;;;;;;;5.82;100.00;102417.97;5079422;28;20575;-33
2022/01/20 00:06:06;;;;;;;18.23;2.40;;;;;;;5.81;100.00;102407.09;5080092;28;20048;-36
2022/01/20 00:08:36;;;;;;;24.17;2.22;;;;;;;5.78;100.00;102430.59;5088654;28;20051;-33
2022/01/20 00:27:52;;;;;;;25.00;3.47;;;;;;;5.77;100.00;102450.22;5077629;28;20052;-37
2022/01/20 00:33:17;;;;;;;16.70;2.35;;;;;;;5.77;100.00;102451.06;5069051;28;20040;-36
2022/01/20 00:38:30;;;;;;;22.05;2.45;;;;;;;5.66;100.00;102446.25;5069004;28;20044;-37
2022/01/20 00:40:57;;;;;;;14.77;2.50;;;;;;;5.60;100.00;102441.63;5059337;28;20732;-38
2022/01/20 00:43:28;;;;;;;18.00;2.33;;;;;;;5.57;100.00;102432.94;5086983;28;20135;-36
2022/01/20 00:45:56;;;;;;;20.25;2.92;;;;;;;5.54;100.00;102446.16;5078103;28;20048;-39
2022/01/20 00:48:24;;;;;;;17.00;2.55;;;;;;;5.52;100.00;102436.38;5086265;28;20056;-31
2022/01/20 00:50:52;;;;;;;18.38;3.13;;;;;;;5.52;100.00;102436.38;5061135;28;20048;-34
2022/01/20 00:53:20;;;;;;;16.90;2.80;;;;;;;5.54;100.00;102445.31;5068788;28;20049;-35
2022/01/20 00:55:47;;;;;;;21.50;2.53;;;;;;;5.55;100.00;102449.78;5080020;28;20048;-40
2022/01/20 00:58:16;;;;;;;24.88;3.03;;;;;;;5.60;100.00;102457.38;5084446;28;20057;-32
2022/01/20 01:00:45;;;;;;;18.17;2.92;;;;;;;5.60;100.00;102463.75;5082021;28;20056;-33
2022/01/20 01:03:12;;;;;;;23.55;3.20;;;;;;;5.61;100.00;102454.38;5083549;28;20101;-35
2022/01/20 01:05:52;;;;;;;20.10;3.03;;;;;;;5.63;100.00;102455.00;5082502;28;20048;-35
2022/01/20 01:08:20;;;;;;;25.00;3.28;;;;;;;5.64;100.00;102448.41;5087360;28;20503;-38
2022/01/20 01:10:50;;;;;;;21.23;3.17;;;;;;;5.68;100.00;102440.50;5081718;28;20050;-33
2022/01/20 01:13:19;;;;;;;23.85;3.13;;;;;;;5.69;100.00;102451.34;5084772;28;20056;-38
2022/01/20 01:15:49;;;;;;;19.13;2.90;;;;;;;5.70;100.00;102438.34;5082063;28;20456;-37
2022/01/20 01:21:27;;;;;;;22.77;2.95;;;;;;;5.70;100.00;102454.97;5073276;28;20067;-34
2022/01/20 01:23:55;;;;;;;23.55;2.80;;;;;;;5.73;100.00;102454.50;5059051;28;20543;-34
2022/01/20 01:26:27;;;;;;;20.85;2.92;;;;;;;5.77;100.00;102478.75;5079949;28;20044;-33
2022/01/20 01:28:56;;;;;;;23.58;3.30;;;;;;;5.78;100.00;102474.91;5058594;28;20563;-33
2022/01/20 01:31:38;;;;;;;18.83;3.13;;;;;;;5.78;100.00;102474.91;5060847;28;20052;-40
2022/01/20 01:34:09;;;;;;;22.80;2.55;;;;;;;5.76;100.00;102465.97;5076984;28;20056;-33
2022/01/20 01:37:05;;;;;;;16.40;2.33;;;;;;;5.73;100.00;102484.97;5066004;28;20501;-38
2022/01/20 01:39:33;;;;;;;19.05;2.60;;;;;;;5.69;100.00;102479.03;5064248;28;20561;-31
2022/01/20 01:42:01;;;;;;;14.38;2.50;;;;;;;5.67;100.00;102470.09;5084310;28;20113;-38
2022/01/20 01:44:30;;;;;;;14.77;1.90;;;;;;;5.64;100.00;102472.47;5062994;28;20052;-35
2022/01/20 01:47:02;;;;;;;12.90;2.10;;;;;;;5.64;100.00;102478.84;5065862;28;20135;-36
2022/01/20 01:49:30;;;;;;;15.40;2.08;;;;;;;5.61;100.00;102468.22;5062218;28;20049;-32
2022/01/20 01:51:59;;;;;;;17.92;2.17;;;;;;;5.61;100.00;102461.84;5064685;28;20051;-37
2022/01/20 01:54:27;;;;;;;17.70;2.40;;;;;;;5.60;100.00;102458.22;5063779;28;20494;-39
2022/01/20 01:56:56;;;;;;;16.90;2.15;;;;;;;5.62;100.00;102469.06;5089904;28;20049;-35
2022/01/20 01:59:31;;;;;;;16.08;2.20;;;;;;;5.64;100.00;102483.56;5072007;28;20580;-36
2022/01/20 02:02:05;;;;;;;12.73;2.17;;;;;;;5.66;100.00;102498.03;5076338;28;20511;-41
2022/01/20 02:04:36;;;;;;;10.63;1.67;;;;;;;5.61;100.00;102509.78;5072258;28;20068;-33
2022/01/20 02:18:49;;;;;;;12.35;1.65;;;;;;;5.25;100.00;102506.88;5017957;28;20045;-39
2022/01/20 02:21:50;;;;;;;15.95;1.90;;;;;;;5.20;100.00;102516.69;5071598;28;20136;-38
2022/01/20 02:24:21;;;;;;;14.80;2.30;;;;;;;5.17;100.00;102517.16;5077698;28;20463;-34
2022/01/20 02:26:49;;;;;;;15.40;2.10;;;;;;;5.16;100.00;102509.06;5070751;28;20056;-35
2022/01/20 02:29:24;;;;;;;13.40;1.95;;;;;;;5.12;100.00;102511.44;5062766;28;20497;-36
2022/01/20 02:31:54;;;;;;;14.52;1.80;;;;;;;5.08;100.00;102510.16;5071637;28;20134;-43
2022/01/20 02:34:24;;;;;;;15.90;2.03;;;;;;;5.03;100.00;102503.59;5080394;28;20498;-34
2022/01/20 02:36:53;;;;;;;16.08;1.95;;;;;;;5.02;100.00;102516.56;5078342;28;20049;-35
2022/01/20 02:39:40;;;;;;;12.85;2.05;;;;;;;5.02;100.00;102522.13;5074341;28;20090;-35
2022/01/20 02:45:03;;;;;;;9.82;1.80;;;;;;;4.97;100.00;102546.00;5068950;28;20052;-38
2022/01/20 02:47:34;;;;;;;15.75;2.05;;;;;;;4.98;100.00;102542.16;5067791;28;20070;-36
2022/01/20 02:50:02;;;;;;;16.60;2.33;;;;;;;4.97;100.00;102557.06;5068601;28;20052;-30
2022/01/20 02:52:36;;;;;;;12.85;2.00;;;;;;;4.97;100.00;102557.06;5069144;28;20118;-32
2022/01/20 02:55:04;;;;;;;12.52;1.75;;;;;;;4.97;100.00;102540.47;5086172;28;20047;-36
2022/01/20 02:57:33;;;;;;;16.75;2.38;;;;;;;4.96;100.00;102547.91;5059754;28;20052;-39
2022/01/20 03:00:00;;;;;;;14.43;2.05;;;;;;;4.94;100.00;102549.22;5084414;28;20055;-37
2022/01/20 03:02:29;;;;;;;12.98;2.00;;;;;;;4.93;100.00;102576.00;5060515;28;20044;-35
2022/01/20 03:04:58;;;;;;;18.40;2.58;;;;;;;4.89;100.00;102585.81;5074216;28;20043;-43
2022/01/20 03:07:31;;;;;;;20.98;2.50;;;;;;;4.80;100.00;102576.06;5068026;28;20055;-39
2022/01/20 03:10:00;;;;;;;13.05;2.00;;;;;;;4.74;100.00;102568.66;5081690;28;20377;-35
2022/01/20 03:12:27;;;;;;;11.88;2.13;;;;;;;4.66;100.00;102582.72;5061305;28;20095;-34
2022/01/20 03:15:01;;;;;;;11.93;2.00;;;;;;;4.58;100.00;102563.63;5082254;28;20043;-36
2022/01/20 03:17:30;;;;;;;16.42;2.05;;;;;;;4.55;100.00;102569.56;5059718;28;20056;-35
2022/01/20 03:19:58;;;;;;;20.77;2.60;;;;;;;4.52;100.00;102573.63;5082077;28;20042;-37
2022/01/20 03:22:27;;;;;;;23.35;2.90;;;;;;;4.50;100.00;102576.59;5061903;28;20052;-36
2022/01/20 03:24:57;;;;;;;23.63;3.25;;;;;;;4.49;100.00;102585.94;5065864;28;20123;-34
2022/01/20 03:27:26;;;;;;;24.02;3.22;;;;;;;4.50;100.00;102570.22;5063167;28;20057;-36
2022/01/20 03:29:54;;;;;;;27.30;3.30;;;;;;;4.53;100.00;102589.13;5061178;28;20101;-31
2022/01/20 03:32:22;;;;;;;24.10;3.70;;;;;;;4.57;100.00;102581.25;5064672;28;20055;-35
2022/01/20 03:34:50;;;;;;;20.88;2.97;;;;;;;4.57;100.00;102586.78;5060120;28;20084;-40
2022/01/20 03:37:18;;;;;;;23.48;3.03;;;;;;;4.56;100.00;102585.94;5065830;28;20459;-39
2022/01/20 03:39:57;;;;;;;22.23;2.90;;;;;;;4.60;100.00;102608.44;5076194;28;20501;-37
2022/01/20 03:42:27;;;;;;;20.38;2.90;;;;;;;4.64;100.00;102591.22;5066602;28;20052;-38
2022/01/20 03:44:55;;;;;;;17.42;2.63;;;;;;;4.64;100.00;102593.97;5076221;28;20049;-38
2022/01/20 03:47:25;;;;;;;23.98;2.53;;;;;;;4.64;100.00;102599.50;5085781;28;20508;-40
2022/01/20 03:50:07;;;;;;;17.88;2.55;;;;;;;4.66;100.00;102593.75;5064417;28;20052;-37
2022/01/20 03:52:35;;;;;;;15.63;2.28;;;;;;;4.68;100.00;102598.03;5066647;28;20086;-39
2022/01/20 03:55:03;;;;;;;21.52;3.15;;;;;;;4.68;100.00;102591.63;5058698;28;20049;-36
2022/01/20 03:58:08;;;;;;;14.45;2.45;;;;;;;4.68;100.00;102608.22;5067126;28;20072;-40
2022/01/20 04:00:40;;;;;;;13.95;2.47;;;;;;;4.66;99.50;102607.59;5061633;28;20114;-42
2022/01/20 04:03:19;;;;;;;25.60;2.88;;;;;;;4.71;100.00;102610.56;5064614;28;20071;-39
2022/01/20 04:05:57;;;;;;;22.73;2.88;;;;;;;4.72;100.00;102601.19;5058907;28;20052;-33
2022/01/20 04:08:33;;;;;;;22.42;3.17;;;;;;;4.69;100.00;102607.16;5064409;28;20051;-38
2022/01/20 04:11:03;;;;;;;20.13;3.20;;;;;;;4.67;100.00;102629.50;5059170;28;20486;-33
2022/01/20 04:13:32;;;;;;;22.38;3.50;;;;;;;4.64;100.00;102637.38;5064806;28;20051;-34
2022/01/20 04:16:12;;;;;;;21.83;3.65;;;;;;;4.58;100.00;102638.25;5072450;28;20060;-37
2022/01/20 04:18:40;;;;;;;16.45;2.80;;;;;;;4.56;100.00;102621.88;5058311;28;20497;-35
2022/01/20 04:21:08;;;;;;;17.38;2.22;;;;;;;4.54;99.41;102634.22;5057419;28;20048;-37
2022/01/20 04:23:36;;;;;;;15.55;2.65;;;;;;;4.52;96.96;102644.63;5066927;28;20048;-33
2022/01/20 04:26:04;;;;;;;18.27;2.17;;;;;;;4.54;97.12;102642.50;5075348;28;20043;-34
2022/01/20 04:28:33;;;;;;;15.35;1.80;;;;;;;4.55;97.25;102652.50;5069442;28;20123;-31
2022/01/20 04:31:00;;;;;;;15.35;2.60;;;;;;;4.56;95.77;102662.50;5076354;28;20127;-29
2022/01/20 04:33:29;;;;;;;9.13;1.52;;;;;;;4.54;94.17;102664.63;5070434;28;20517;-32
2022/01/20 04:35:57;;;;;;;20.10;2.00;;;;;;;4.55;92.15;102660.81;5076058;28;20055;-35
2022/01/20 04:38:25;;;;;;;11.90;1.85;;;;;;;4.54;90.17;102665.47;5083481;28;20048;-37
2022/01/20 04:40:53;;;;;;;13.25;2.05;;;;;;;4.56;89.19;102668.03;5057630;28;20074;-40
2022/01/20 04:43:21;;;;;;;13.43;2.20;;;;;;;4.57;88.67;102675.25;5072100;28;20052;-36
2022/01/20 04:45:57;;;;;;;15.73;2.05;;;;;;;4.58;89.05;102655.69;5060510;28;20079;-36
2022/01/20 04:48:31;;;;;;;15.15;2.45;;;;;;;4.59;89.00;102665.69;5071430;28;20074;-34
2022/01/20 04:59:19;;;;;;;11.13;2.85;;;;;;;4.59;85.35;102693.34;5089466;28;20078;-35
2022/01/20 05:01:48;;;;;;;11.48;1.90;;;;;;;4.62;85.61;102676.28;5066796;28;20048;-36
2022/01/20 05:04:23;;;;;;;15.77;2.13;;;;;;;4.61;83.31;102693.09;5065986;28;20051;-33
2022/01/20 05:07:07;;;;;;;11.25;1.70;;;;;;;4.61;83.31;102698.63;5063478;28;20094;-41
2022/01/20 05:09:35;;;;;;;9.38;1.63;;;;;;;4.61;82.89;102682.03;5070078;28;20048;-38
2022/01/20 05:12:07;;;;;;;9.20;1.70;;;;;;;4.61;82.22;102682.03;5076046;28;20051;-36
2022/01/20 05:14:38;;;;;;;11.85;1.50;;;;;;;4.59;82.60;102690.56;5060949;28;20067;-36
2022/01/20 05:17:08;;;;;;;12.43;2.03;;;;;;;4.58;81.56;102682.50;5085158;28;20114;-34
2022/01/20 05:19:37;;;;;;;13.88;2.25;;;;;;;4.58;81.39;102676.97;5062496;28;20044;-32
2022/01/20 05:22:05;;;;;;;15.93;2.05;;;;;;;4.56;82.10;102691.00;5068112;28;20098;-35
2022/01/20 05:24:44;;;;;;;13.25;1.80;;;;;;;4.57;82.64;102702.91;5062761;28;20871;-34
2022/01/20 05:27:12;;;;;;;14.05;2.40;;;;;;;4.57;84.31;102730.56;5068349;28;20095;-38
2022/01/20 05:29:40;;;;;;;16.33;2.58;;;;;;;4.59;87.66;102726.50;5080955;28;20386;-37
2022/01/20 05:32:10;;;;;;;12.90;2.10;;;;;;;4.61;88.63;102720.75;5065871;28;20421;-34
2022/01/20 05:34:38;;;;;;;19.17;2.75;;;;;;;4.57;89.60;102722.25;5065120;28;20049;-33
2022/01/20 05:37:06;;;;;;;10.52;1.70;;;;;;;4.55;89.70;102727.16;5086365;28;20523;-38
2022/01/20 05:39:34;;;;;;;11.90;1.70;;;;;;;4.52;89.72;102739.47;5067221;28;20555;-34
2022/01/20 05:42:02;;;;;;;14.10;1.83;;;;;;;4.50;90.23;102714.81;5065379;28;20091;-37
2022/01/20 05:44:42;;;;;;;15.20;2.55;;;;;;;4.49;90.42;102731.59;5063279;28;20087;-38
2022/01/20 05:47:12;;;;;;;12.88;2.08;;;;;;;4.48;90.82;102722.47;5083360;28;20050;-39
2022/01/20 05:50:04;;;;;;;10.77;1.65;;;;;;;4.45;88.78;102717.34;5089183;28;20101;-37
2022/01/20 05:52:31;;;;;;;13.00;2.28;;;;;;;4.47;88.69;102722.66;5057943;28;20053;-35
2022/01/20 05:55:00;;;;;;;12.90;2.00;;;;;;;4.50;87.82;102736.94;5079399;28;20493;-32
2022/01/20 05:57:27;;;;;;;12.63;1.98;;;;;;;4.54;88.04;102725.44;5077089;28;20615;-34
2022/01/20 05:59:55;;;;;;;15.65;2.33;;;;;;;4.56;88.63;102742.66;5080646;28;20075;-39
2022/01/20 06:02:35;;;;;;;11.98;2.50;;;;;;;4.53;90.28;102745.84;5067262;28;20060;-40
2022/01/20 06:05:06;;;;;;;14.50;2.08;;;;;;;4.46;93.46;102741.16;5057817;28;20095;-36
2022/01/20 06:07:34;;;;;;;15.40;2.33;;;;;;;4.40;94.47;102738.41;5060693;28;20052;-38
2022/01/20 06:10:01;;;;;;;16.92;3.08;;;;;;;4.31;95.63;102728.63;5056582;28;20113;-41
2022/01/20 06:12:29;;;;;;;11.82;1.83;;;;;;;4.23;96.09;102732.44;5061844;28;20138;-31
2022/01/20 06:14:58;;;;;;;12.13;2.10;;;;;;;4.20;96.64;102726.50;5055573;28;20133;-34
2022/01/20 06:17:30;;;;;;;14.30;2.28;;;;;;;4.20;97.12;102735.63;5063810;28;20044;-36
2022/01/20 06:20:08;;;;;;;15.80;2.63;;;;;;;4.22;96.89;102746.47;5053148;28;20052;-40
2022/01/20 06:22:37;;;;;;;10.35;2.13;;;;;;;4.24;96.96;102738.81;5067452;28;20052;-36
2022/01/20 06:25:06;;;;;;;15.20;2.00;;;;;;;4.27;96.97;102746.69;5085310;28;20051;-37
2022/01/20 06:27:34;;;;;;;16.15;2.60;;;;;;;4.31;95.78;102750.75;5068579;28;20056;-36
2022/01/20 06:30:05;;;;;;;16.85;2.40;;;;;;;4.35;95.25;102758.41;5076781;28;20045;-34
2022/01/20 06:32:34;;;;;;;17.67;2.78;;;;;;;4.39;95.09;102767.97;5071031;28;20135;-38
2022/01/20 06:35:04;;;;;;;17.27;2.92;;;;;;;4.43;95.47;102776.66;5067694;28;20052;-36
2022/01/20 06:37:32;;;;;;;14.70;2.58;;;;;;;4.43;95.43;102768.38;5067609;28;20171;-35
2022/01/20 06:40:00;;;;;;;14.23;1.98;;;;;;;4.43;95.00;102772.00;5068600;28;20041;-37
2022/01/20 06:42:28;;;;;;;14.13;1.95;;;;;;;4.42;94.61;102762.00;5065848;28;20048;-33
2022/01/20 06:44:56;;;;;;;17.92;2.80;;;;;;;4.38;93.97;102771.81;5059886;28;20040;-35
2022/01/20 06:47:28;;;;;;;15.05;2.38;;;;;;;4.34;92.56;102776.03;5072053;28;20070;-36
2022/01/20 06:49:57;;;;;;;18.13;2.40;;;;;;;4.33;92.12;102779.88;5061487;28;20125;-38
2022/01/20 06:52:25;;;;;;;8.73;1.55;;;;;;;4.33;92.52;102779.88;5074249;28;20048;-37
2022/01/20 06:54:53;;;;;;;19.77;2.75;;;;;;;4.35;90.77;102776.91;5078012;28;20097;-42
2022/01/20 06:57:28;;;;;;;26.60;2.38;;;;;;;4.35;90.92;102786.03;5062597;28;20052;-41
2022/01/20 06:59:56;;;;;;;13.93;2.58;;;;;;;4.39;91.03;102792.84;5077558;28;20141;-37
2022/01/20 07:02:25;;;;;;;19.58;2.55;;;;;;;4.39;90.52;102798.38;5061963;28;20456;-36
2022/01/20 07:04:53;;;;;;;18.83;2.60;;;;;;;4.39;91.16;102801.16;5060468;28;20072;-35
2022/01/20 07:07:22;;;;;;;11.15;2.05;;;;;;;4.37;91.37;102806.03;5081197;28;20051;-41
2022/01/20 07:10:23;;;;;;;13.02;2.45;;;;;;;4.30;89.67;102805.16;5075477;28;20055;-37
2022/01/20 07:12:55;;;;;;;11.73;1.80;;;;;;;4.32;89.76;102816.00;5070760;28;20076;-34
2022/01/20 07:15:23;;;;;;;10.95;2.03;;;;;;;4.31;89.94;102825.34;5076383;28;20070;-38
2022/01/20 07:17:52;;;;;;;14.40;2.13;;;;;;;4.30;89.04;102824.50;5060987;28;20055;-34
2022/01/20 07:20:24;;;;;;;12.68;1.90;;;;;;;4.29;87.58;102822.78;5060631;28;20838;-35
2022/01/20 07:23:14;;;;;;;15.35;2.17;;;;;;;4.29;88.01;102827.47;5081763;28;20523;-33
2022/01/20 07:25:58;;;;;;;17.00;2.60;;;;;;;4.28;88.61;102818.31;5060545;28;20048;-37
2022/01/20 07:28:27;;;;;;;15.50;2.20;;;;;;;4.25;89.13;102815.97;5062732;28;20044;-39
2022/01/20 07:30:55;;;;;;;14.07;2.35;;;;;;;4.22;88.84;102832.97;5058847;28;20561;-36
2022/01/20 07:33:23;;;;;;;15.80;2.00;;;;;;;4.19;87.74;102827.03;5062434;28;20415;-34
2022/01/20 07:35:54;;;;;;;17.17;2.28;;;;;;;4.16;87.39;102825.53;5059872;28;20049;-36
2022/01/20 07:38:23;;;;;;;10.88;1.88;;;;;;;4.13;85.40;102818.50;5080029;28;20062;-34
2022/01/20 07:40:51;;;;;;;5.45;1.20;;;;;;;4.11;84.79;102822.53;5079540;28;20044;-40
2022/01/20 07:43:20;;;;;;;10.52;1.30;;;;;;;4.06;83.05;102806.59;5060777;28;20082;-36
2022/01/20 07:45:54;;;;;;;8.93;1.42;;;;;;;4.03;80.57;102822.72;5081682;28;20052;-37
2022/01/20 07:48:22;;;;;;;6.70;1.40;;;;;;;4.00;79.54;102815.69;5078294;28;20056;-33
2022/01/20 07:51:00;;;;;;;11.10;1.30;;;;;;;3.99;78.61;102819.53;5063614;28;20111;-34
2022/01/20 07:53:34;;;;;;;10.50;1.60;;;;;;;3.99;78.48;102805.72;5060490;28;20086;-38
2022/01/20 07:56:03;;;;;;;10.02;1.77;;;;;;;3.98;77.97;102825.28;5065030;28;20053;-34
2022/01/20 07:58:31;;;;;;;11.25;1.70;;;;;;;3.98;78.24;102839.09;5057913;28;20052;-35
2022/01/20 08:00:59;;;;;;;10.43;2.03;;;;;;;3.98;79.06;102844.59;5076188;28;20524;-35
2022/01/20 08:03:28;;;;;;;12.80;2.25;;;;;;;3.98;80.09;102841.84;5063444;28;20052;-39
2022/01/20 08:06:10;;;;;;;15.20;2.58;;;;;;;3.99;82.01;102849.06;5081787;28;20040;-37
2022/01/20 08:08:43;;;;;;;15.45;2.08;;;;;;;4.00;83.41;102850.75;5062640;28;20564;-35
2022/01/20 08:11:30;;;;;;;13.15;1.80;;;;;;;4.01;84.96;102845.03;5075335;28;20056;-37
2022/01/20 08:14:33;;;;;;;12.60;2.03;;;;;;;4.01;86.11;102857.97;5029769;28;20056;-35
2022/01/20 08:17:01;;;;;;;12.13;2.30;;;;;;;4.00;86.39;102870.09;5050264;28;20063;-36
2022/01/20 08:19:32;;;;;;;14.68;2.33;;;;;;;3.98;86.82;102861.19;5060148;28;20044;-31
2022/01/20 08:22:01;;;;;;;15.93;1.85;;;;;;;3.99;87.49;102869.25;5063775;28;20040;-33
2022/01/20 08:24:51;;;;;;;13.15;1.90;;;;;;;4.01;88.97;102882.84;5081774;28;20069;-36
2022/01/20 08:27:20;;;;;;;11.23;2.05;;;;;;;4.06;90.19;102877.56;5061618;28;20098;-33
2022/01/20 08:29:48;;;;;;;17.98;2.03;;;;;;;4.14;90.91;102880.16;5059793;28;20052;-39
2022/01/20 08:32:23;;;;;;;14.68;2.40;;;;;;;4.25;91.81;102874.00;5062858;28;20083;-33
2022/01/20 08:35:09;;;;;;;12.98;2.08;;;;;;;4.34;92.16;102858.97;5087136;28;20518;-37
2022/01/20 08:37:53;;;;;;;17.23;2.38;;;;;;;4.39;93.56;102886.81;5084720;28;20494;-36
2022/01/20 08:40:23;;;;;;;24.15;3.40;;;;;;;4.42;95.16;102889.16;5078191;28;20070;-30
2022/01/20 08:42:53;;;;;;;11.53;2.27;;;;;;;4.39;96.90;102889.59;5061763;28;20098;-33
2022/01/20 08:45:24;;;;;;;14.50;2.03;;;;;;;4.32;97.96;102899.75;5060306;28;20223;-34
2022/01/20 08:47:56;;;;;;;18.83;2.38;;;;;;;4.25;98.86;102898.88;5062109;28;20060;-39
2022/01/20 08:50:33;;;;;;;14.27;2.00;;;;;;;4.17;99.66;102904.59;5089323;28;20093;-34
2022/01/20 08:53:00;;;;;;;17.48;2.10;;;;;;;4.20;99.37;102908.88;5063499;28;20052;-40
2022/01/20 08:55:30;;;;;;;12.57;2.13;;;;;;;4.28;98.90;102905.91;5057325;28;20048;-42
2022/01/20 08:58:06;;;;;;;12.02;1.95;;;;;;;4.39;97.68;102902.56;5064394;28;20055;-35
2022/01/20 09:00:36;;;;;;;7.88;1.55;;;;;;;4.58;97.66;102917.50;5056830;28;20129;-38
2022/01/20 09:03:05;;;;;;;14.57;2.08;;;;;;;4.83;98.01;102915.81;5065386;28;20048;-33
2022/01/20 09:05:34;;;;;;;14.40;2.08;;;;;;;5.06;97.80;102907.97;5053194;28;20048;-41
2022/01/20 09:08:13;;;;;;;13.20;1.80;;;;;;;5.16;96.09;102919.47;5059731;28;20051;-38
2022/01/20 09:10:54;;;;;;;8.45;1.35;;;;;;;5.18;94.58;102931.19;5068261;28;20068;-38
2022/01/20 09:16:12;;;;;;;10.52;1.67;;;;;;;5.24;96.63;102947.97;5066778;28;20070;-34
2022/01/20 09:19:03;;;;;;;11.90;1.83;;;;;;;5.44;97.44;102943.28;5073834;28;20058;-35
2022/01/20 09:21:34;;;;;;;11.77;1.65;;;;;;;5.73;97.43;102939.22;5083167;28;20481;-32
2022/01/20 09:24:03;;;;;;;8.45;1.73;;;;;;;6.05;96.90;102945.78;5068579;28;20457;-41
2022/01/20 09:26:33;;;;;;;10.95;1.85;;;;;;;6.36;95.14;102948.66;5067503;28;20121;-36
2022/01/20 09:29:04;;;;;;;;;;;;;;;6.67;93.66;102941.44;5072647;28;20082;-41
2022/01/20 09:31:37;;;;;;;10.02;1.52;;;;;;;6.83;91.91;102952.00;5068379;28;19924;-37
2022/01/20 09:34:07;;;;;;;15.70;2.20;;;;;;;6.73;91.05;102946.97;5060166;28;20048;-35
2022/01/20 09:36:37;;;;;;;10.73;1.63;;;;;;;6.49;91.20;102954.13;5067553;28;20060;-33
2022/01/20 09:39:05;;;;;;;15.48;2.45;;;;;;;6.40;93.03;102949.03;5059223;28;20062;-37
2022/01/20 09:41:52;;;;;;;11.48;2.00;;;;;;;6.27;94.49;102944.41;5068110;28;20051;-35
2022/01/20 09:44:21;;;;;;;11.65;1.90;;;;;;;6.38;97.19;102952.06;5058911;28;20052;-36
2022/01/20 09:46:49;;;;;;;16.25;2.30;;;;;;;6.63;97.79;102929.94;5085967;28;20097;-41
2022/01/20 09:49:37;;;;;;;17.00;2.22;;;;;;;7.04;97.50;102939.69;5074224;28;20063;-37
2022/01/20 09:52:11;;;;;;;12.13;1.88;;;;;;;7.32;94.46;102954.00;5060945;28;20047;-38
2022/01/20 09:54:46;;;;;;;11.25;1.95;;;;;;;7.50;91.79;102942.94;5059597;28;20489;-38
2022/01/20 09:57:20;;;;;;;10.68;1.70;;;;;;;7.65;88.22;102952.84;5071219;28;20412;-34
2022/01/20 09:59:50;;;;;;;11.55;1.40;;;;;;;7.78;86.59;102961.94;5063085;28;20054;-37
2022/01/20 10:02:19;;;;;;;7.97;1.45;;;;;;;7.98;85.70;102956.16;5071852;28;20048;-35
2022/01/20 10:04:54;;;;;;;7.78;1.33;;;;;;;8.09;82.00;102971.22;5062878;28;20040;-37
2022/01/20 10:07:32;;;;;;;9.43;1.52;;;;;;;8.21;81.75;102977.69;5071712;28;20048;-41
2022/01/20 10:10:06;;;;;;;12.63;2.40;;;;;;;8.34;80.24;102962.81;5062904;28;20052;-39
2022/01/20 10:13:05;;;;;;;11.38;1.75;;;;;;;8.41;76.49;102980.25;5055897;28;20063;-36
2022/01/20 10:15:57;;;;;;;11.05;2.05;;;;;;;8.48;75.97;102973.53;5078743;28;20059;-30
2022/01/20 10:18:49;;;;;;;10.97;2.07;;;;;;;8.67;75.84;102974.38;5081981;28;20453;-35
2022/01/20 10:21:19;;;;;;;7.07;1.75;;;;;;;8.86;74.43;102978.81;5063577;28;20052;-40
2022/01/20 10:24:05;;;;;;;12.82;1.70;;;;;;;8.94;72.79;102977.63;5071184;28;20502;-35
2022/01/20 10:26:44;;;;;;;10.27;2.10;;;;;;;8.95;72.16;102987.69;5068959;28;20052;-37
2022/01/20 10:29:16;;;;;;;10.07;1.98;;;;;;;9.08;72.67;102984.69;5070286;28;20417;-37
2022/01/20 10:32:05;;;;;;;12.43;2.15;;;;;;;9.27;71.97;102982.69;5068780;28;20339;-41
2022/01/20 10:34:36;;;;;;;11.80;2.40;;;;;;;9.26;71.41;102981.00;5068785;28;20102;-38
2022/01/20 10:37:33;;;;;;;12.23;1.60;;;;;;;9.23;71.82;102995.38;5062653;28;20056;-41
2022/01/20 10:40:13;;;;;;;14.23;2.88;;;;;;;9.26;72.65;102994.91;5065977;28;20056;-38
2022/01/20 10:42:55;;;;;;;12.32;1.85;;;;;;;9.24;73.64;102992.38;5071358;28;20135;-39
2022/01/20 10:45:28;;;;;;;13.00;2.25;;;;;;;9.29;74.32;102994.44;5074312;28;20417;-35
2022/01/20 10:47:59;;;;;;;13.50;2.05;;;;;;;9.10;74.27;103004.81;5061439;28;20055;-40
2022/01/20 10:50:31;;;;;;;12.73;2.75;;;;;;;8.74;75.07;103024.38;5074520;28;20055;-41
2022/01/20 10:53:03;;;;;;;11.30;2.25;;;;;;;8.22;77.84;103027.53;5070441;28;20485;-43
2022/01/20 10:55:33;;;;;;;12.55;2.15;;;;;;;7.72;81.43;103023.97;5075492;28;20416;-37
2022/01/20 10:58:12;;;;;;;10.35;2.20;;;;;;;7.25;83.32;103034.59;5071726;28;20044;-36
2022/01/20 11:00:44;;;;;;;14.48;2.25;;;;;;;6.89;85.61;103021.34;5082056;28;20048;-37
2022/01/20 11:03:13;;;;;;;10.48;1.63;;;;;;;6.63;86.07;103026.16;5071578;28;20044;-38
2022/01/20 11:05:44;;;;;;;11.23;1.92;;;;;;;6.46;87.94;103031.38;5067406;28;20408;-42
2022/01/20 11:08:16;;;;;;;11.82;1.80;;;;;;;6.40;89.47;103027.53;5058990;28;20044;-34
2022/01/20 11:10:45;;;;;;;13.88;1.90;;;;;;;6.55;90.31;103030.06;5082376;28;20151;-42
2022/01/20 11:13:31;;;;;;;9.93;1.50;;;;;;;6.70;90.61;103027.00;5061534;28;20123;-39
2022/01/20 11:16:00;;;;;;;9.27;1.60;;;;;;;6.88;90.05;103013.25;5063227;28;20089;-38
2022/01/20 11:18:29;;;;;;;6.95;1.42;;;;;;;7.02;89.63;103025.97;5060711;28;20076;-39
2022/01/20 11:21:00;;;;;;;10.57;1.52;;;;;;;7.11;89.24;103023.78;5063311;28;20048;-41
2022/01/20 11:23:38;;;;;;;13.60;2.15;;;;;;;7.23;89.39;103013.66;5061572;28;20098;-32
2022/01/20 11:26:25;;;;;;;12.60;2.10;;;;;;;7.35;89.35;103020.22;5092859;28;20056;-35
2022/01/20 11:29:08;;;;;;;9.93;2.05;;;;;;;7.43;88.10;103022.69;5061181;28;20052;-39
2022/01/20 11:31:53;;;;;;;9.18;1.77;;;;;;;7.49;87.28;103016.25;5081557;28;20048;-40
2022/01/20 11:35:03;;;;;;;13.63;2.47;;;;;;;7.50;86.97;103023.50;5070572;28;20032;-40
2022/01/20 11:37:34;;;;;;;10.90;2.20;;;;;;;7.34;84.91;103012.09;5079416;28;20040;-38
2022/01/20 11:40:15;;;;;;;10.70;2.00;;;;;;;7.28;85.67;103013.00;5088418;28;20056;-35
2022/01/20 11:42:44;;;;;;;11.82;2.28;;;;;;;7.30;85.67;103014.47;5078592;28;20041;-39
2022/01/20 11:45:32;;;;;;;12.82;1.98;;;;;;;7.38;85.37;103011.44;5088129;28;20528;-35
2022/01/20 11:48:12;;;;;;;12.65;2.25;;;;;;;7.45;85.70;103008.59;5079444;28;20036;-39
2022/01/20 11:50:40;;;;;;;15.25;1.92;;;;;;;7.49;84.45;103015.41;5087107;28;20497;-37
2022/01/20 11:53:16;;;;;;;12.88;2.17;;;;;;;7.52;84.36;103013.03;5078734;28;20090;-32
2022/01/20 11:55:48;;;;;;;14.93;2.35;;;;;;;7.45;84.08;103003.03;5087951;28;20040;-34
2022/01/20 11:58:19;;;;;;;11.95;1.80;;;;;;;7.46;85.07;103001.97;5078342;28;20044;-36
2022/01/20 12:00:57;;;;;;;16.27;2.25;;;;;;;7.42;86.05;103004.34;5087905;28;20444;-35
2022/01/20 12:03:29;;;;;;;11.73;1.90;;;;;;;7.36;86.90;102999.69;5078154;28;20051;-39
2022/01/20 12:06:02;;;;;;;11.55;2.30;;;;;;;7.32;87.78;103000.38;5069877;28;20083;-37
2022/01/20 12:08:36;;;;;;;14.05;2.38;;;;;;;7.20;86.62;103011.31;5060700;28;20486;-39
2022/01/20 12:11:07;;;;;;;16.27;2.28;;;;;;;7.07;87.02;102995.63;5086869;28;20036;-38
2022/01/20 12:13:46;;;;;;;16.67;3.00;;;;;;;6.92;88.12;103003.41;5080079;28;20044;-37
2022/01/20 12:16:18;;;;;;;11.80;2.47;;;;;;;6.78;88.88;103016.53;5077950;28;20044;-36
2022/01/20 12:18:51;;;;;;;;;;;;;;;6.43;91.02;103035.41;5078924;28;20150;-37
2022/01/20 12:21:18;;;;;;;;;;;;;;;6.00;93.02;103025.94;5076870;28;19927;-32
2022/01/20 12:23:47;;;;;;;;;;;;;;;5.65;96.94;103026.16;5081395;28;20274;-38
2022/01/20 12:26:15;;;;;;;;;;;;;;;5.42;98.82;103006.34;5085581;28;19920;-36
2022/01/20 12:28:43;;;;;;;;;;;;;;;5.28;100.00;102997.19;5082880;28;19927;-36
2022/01/20 12:31:12;;;;;;;;;;;;;;;5.20;100.00;103020.38;5084408;28;20264;-34
2022/01/20 12:33:44;;;;;;;;;;;;;;;5.11;100.00;103013.34;5083321;28;19927;-31
2022/01/20 12:36:14;;;;;;;;;;;;;;;5.14;100.00;103021.22;5079375;28;20064;-36
2022/01/20 12:38:42;;;;;;;;;;;;;;;5.15;100.00;103016.56;5080339;28;19924;-35
2022/01/20 12:41:11;;;;;;;;;;;;;;;5.11;100.00;103016.09;5077973;28;19927;-37
2022/01/20 12:43:40;;;;;;;;;;;;;;;5.13;99.29;103016.75;5070601;28;19920;-38